Time,TemperatureF,DewpointF,PressureIn,WindDirection,WindDirectionDegrees,WindSpeedMPH,WindSpeedGustMPH,Humidity,HourlyPrecipIn,Conditions,Clouds,dailyrainin,SolarRadiationWatts/m^2,SoftwareType,DateUTC
2013-05-04 00:01:00,38.0,6.0,-100.00,NNW,343,0.0,0.0,26,0.00,,,0.00,0.000000,,2013-05-04 07:01:00,
2013-05-04 00:31:00,38.0,6.0,-100.00,NNW,343,0.0,0.0,26,0.00,,,0.00,0.000000,,2013-05-04 07:31:00,
2013-05-04 01:01:00,37.0,6.0,-100.00,NNW,342,0.0,0.0,27,0.00,,,0.00,0.000000,,2013-05-04 08:01:00,
2013-05-04 01:21:00,37.0,6.0,-100.00,NNW,342,0.0,0.0,27,0.00,,,0.00,0.000000,,2013-05-04 08:21:00,
2013-05-04 01:31:00,37.0,6.0,-100.00,NNW,342,0.0,0.0,27,0.00,,,0.00,0.000000,,2013-05-04 08:31:00,
2013-05-04 02:02:00,37.0,5.0,-100.00,North,8,0.0,2.0,26,0.00,,,0.00,0.000000,,2013-05-04 09:02:00,
2013-05-04 02:32:00,37.0,5.0,-100.00,North,8,0.0,2.0,26,0.00,,,0.00,0.000000,,2013-05-04 09:32:00,
2013-05-04 03:02:00,37.0,5.0,-100.00,North,357,0.0,0.0,26,0.00,,,0.00,0.000000,,2013-05-04 10:02:00,
2013-05-04 03:12:00,37.0,5.0,-100.00,North,357,0.0,0.0,26,0.00,,,0.00,0.000000,,2013-05-04 10:12:00,
2013-05-04 03:22:00,37.0,5.0,-100.00,North,357,0.0,0.0,26,0.00,,,0.00,0.000000,,2013-05-04 10:22:00,
2013-05-04 03:32:00,37.0,5.0,-100.00,North,357,0.0,0.0,26,0.00,,,0.00,0.000000,,2013-05-04 10:32:00,
2013-05-04 04:02:00,35.0,4.0,-100.00,North,11,0.0,0.0,27,0.00,,,-99.99,0.000000,,2013-05-04 11:02:00,
2013-05-04 04:21:00,35.0,4.0,-100.00,North,11,0.0,0.0,27,0.00,,,-99.99,0.000000,,2013-05-04 11:21:00,
2013-05-04 04:32:00,35.0,4.0,-100.00,North,11,0.0,0.0,27,0.00,,,-99.99,0.000000,,2013-05-04 11:32:00,
2013-05-04 05:04:00,34.0,5.0,-100.00,North,6,0.0,0.0,29,0.00,,,0.00,0.000000,,2013-05-04 12:04:00,
2013-05-04 06:01:00,36.0,4.0,-100.00,North,4,0.0,0.0,26,0.00,,,0.00,0.000000,,2013-05-04 13:01:00,
2013-05-04 06:11:00,36.0,4.0,-100.00,North,4,0.0,0.0,26,0.00,,,0.00,0.000000,,2013-05-04 13:11:00,
2013-05-04 06:31:00,36.0,4.0,-100.00,North,4,0.0,0.0,26,0.00,,,0.00,0.000000,,2013-05-04 13:31:00,
2013-05-04 07:02:00,36.0,5.0,-100.00,North,6,0.0,0.0,27,0.00,,,0.00,10.000000,,2013-05-04 14:02:00,
2013-05-04 07:11:00,36.0,5.0,-100.00,North,6,0.0,0.0,27,0.00,,,0.00,10.000000,,2013-05-04 14:11:00,
2013-05-04 07:21:00,36.0,5.0,-100.00,North,6,0.0,0.0,27,0.00,,,0.00,10.000000,,2013-05-04 14:21:00,
2013-05-04 07:32:00,36.0,5.0,-100.00,North,6,0.0,0.0,27,0.00,,,0.00,10.000000,,2013-05-04 14:32:00,
2013-05-04 08:02:00,50.0,17.0,-100.00,East,86,0.0,0.0,27,0.00,,,0.00,107.000000,,2013-05-04 15:02:00,
2013-05-04 08:11:00,50.0,17.0,-100.00,East,86,0.0,0.0,27,0.00,,,0.00,107.000000,,2013-05-04 15:11:00,
2013-05-04 08:21:00,50.0,17.0,-100.00,East,86,0.0,0.0,27,0.00,,,0.00,107.000000,,2013-05-04 15:21:00,
2013-05-04 08:33:00,50.0,17.0,-100.00,East,86,0.0,0.0,27,0.00,,,0.00,107.000000,,2013-05-04 15:33:00,
2013-05-04 09:03:00,64.0,4.0,-100.00,South,175,1.0,6.0,9,0.00,,,0.00,490.000000,,2013-05-04 16:03:00,
2013-05-04 10:02:00,69.0,2.0,-100.00,SSW,213,2.0,8.0,7,-99.99,,,0.00,730.000000,,2013-05-04 17:02:00,
2013-05-04 11:01:00,71.0,1.0,-100.00,South,174,2.0,11.0,6,-99.99,,,0.00,995.000000,,2013-05-04 18:01:00,
2013-05-04 12:01:00,71.0,1.0,-100.00,SSW,199,4.0,12.0,6,-99.99,,,0.00,1153.000000,,2013-05-04 19:01:00,
2013-05-04 13:02:00,72.0,7.0,-100.00,SSW,192,5.0,14.0,8,-99.99,,,0.00,1249.000000,,2013-05-04 20:02:00,
2013-05-04 14:02:00,73.0,8.0,-100.00,WSW,239,5.0,15.0,8,-99.99,,,0.00,1261.000000,,2013-05-04 21:02:00,
2013-05-04 15:03:00,70.0,6.0,-100.00,South,187,5.0,12.0,8,-99.99,,,0.00,1218.000000,,2013-05-04 22:03:00,
2013-05-04 16:02:00,68.0,14.0,-100.00,South,183,6.0,14.0,12,-99.99,,,0.00,965.000000,,2013-05-04 23:02:00,
2013-05-04 17:01:00,62.0,20.0,-100.00,SSE,165,3.0,14.0,20,0.00,,,0.00,682.000000,,2013-05-05 00:01:00,
2013-05-04 17:11:00,62.0,20.0,-100.00,SSE,165,3.0,14.0,20,0.00,,,0.00,682.000000,,2013-05-05 00:11:00,
2013-05-04 17:21:00,62.0,20.0,-100.00,SSE,165,3.0,14.0,20,0.00,,,0.00,682.000000,,2013-05-05 00:21:00,
2013-05-04 17:31:00,62.0,20.0,-100.00,SSE,165,3.0,14.0,20,0.00,,,0.00,682.000000,,2013-05-05 00:31:00,
2013-05-04 18:01:00,58.0,31.0,-100.00,West,261,4.0,11.0,35,0.00,,,-99.99,387.000000,,2013-05-05 01:01:00,
2013-05-04 18:11:00,58.0,31.0,-100.00,West,261,4.0,11.0,35,0.00,,,-99.99,387.000000,,2013-05-05 01:11:00,
2013-05-04 18:21:00,58.0,31.0,-100.00,West,261,4.0,11.0,35,0.00,,,-99.99,387.000000,,2013-05-05 01:21:00,
2013-05-04 18:32:00,58.0,31.0,-100.00,West,261,4.0,11.0,35,0.00,,,-99.99,387.000000,,2013-05-05 01:32:00,
2013-05-04 19:02:00,54.0,29.0,-100.00,ESE,119,2.0,11.0,38,0.00,,,0.00,142.000000,,2013-05-05 02:02:00,
2013-05-04 19:11:00,54.0,29.0,-100.00,ESE,119,2.0,11.0,38,0.00,,,0.00,142.000000,,2013-05-05 02:11:00,
2013-05-04 19:21:00,54.0,29.0,-100.00,ESE,119,2.0,11.0,38,0.00,,,0.00,142.000000,,2013-05-05 02:21:00,
2013-05-04 19:31:00,54.0,29.0,-100.00,ESE,119,2.0,11.0,38,0.00,,,0.00,142.000000,,2013-05-05 02:31:00,
2013-05-04 20:01:00,48.0,24.0,-100.00,South,177,1.0,10.0,39,0.00,,,0.00,46.000000,,2013-05-05 03:01:00,
2013-05-04 20:11:00,48.0,24.0,-100.00,South,177,1.0,10.0,39,0.00,,,0.00,46.000000,,2013-05-05 03:11:00,
2013-05-04 20:21:00,48.0,24.0,-100.00,South,177,1.0,10.0,39,0.00,,,0.00,46.000000,,2013-05-05 03:21:00,
2013-05-04 20:32:00,48.0,24.0,-100.00,South,177,1.0,10.0,39,0.00,,,0.00,46.000000,,2013-05-05 03:32:00,
2013-05-04 21:02:00,49.0,21.0,-100.00,SSE,168,2.0,12.0,33,0.00,,,0.00,0.000000,,2013-05-05 04:02:00,
2013-05-04 22:02:00,46.0,13.0,-100.00,SSW,194,2.0,10.0,26,0.00,,,0.00,0.000000,,2013-05-05 05:02:00,
2013-05-04 23:01:00,47.0,12.0,-100.00,South,184,3.0,12.0,24,0.00,,,0.00,0.000000,,2013-05-05 06:01:00,